createdAt,value
2019-03-19T00:01:25.314Z,3.15
2019-03-19T00:03:51.646Z,2.90
2019-03-19T00:06:17.883Z,3.30
2019-03-19T00:08:44.099Z,3.77
2019-03-19T00:11:10.386Z,2.62
2019-03-19T00:13:36.563Z,2.45
2019-03-19T00:16:02.923Z,2.45
2019-03-19T00:18:29.478Z,3.20
2019-03-19T00:20:55.720Z,3.20
2019-03-19T00:23:21.945Z,3.00
2019-03-19T00:25:48.198Z,2.33
2019-03-19T00:28:14.406Z,2.92
2019-03-19T00:30:40.935Z,2.83
2019-03-19T00:33:07.183Z,3.05
2019-03-19T00:35:33.428Z,2.90
2019-03-19T00:37:59.657Z,2.50
2019-03-19T00:40:26.266Z,2.95
2019-03-19T00:42:52.542Z,3.45
2019-03-19T00:45:18.735Z,2.65
2019-03-19T00:47:45.002Z,2.80
2019-03-19T00:50:14.785Z,2.50
2019-03-19T00:52:41.002Z,2.70
2019-03-19T00:55:07.765Z,2.45
2019-03-19T00:57:34.087Z,2.92
2019-03-19T01:00:00.338Z,2.92
2019-03-19T01:02:26.929Z,2.80
2019-03-19T01:04:53.455Z,2.98
2019-03-19T01:07:20.005Z,4.45
2019-03-19T01:09:46.255Z,2.75
2019-03-19T01:12:12.482Z,3.30
2019-03-19T01:14:38.992Z,3.85
2019-03-19T01:17:05.237Z,4.25
2019-03-19T01:19:31.448Z,3.47
2019-03-19T01:21:57.703Z,3.30
2019-03-19T01:24:23.928Z,2.67
2019-03-19T01:26:50.271Z,3.17
2019-03-19T01:29:16.767Z,2.55
2019-03-19T01:31:43.005Z,3.02
2019-03-19T01:34:09.560Z,2.80
2019-03-19T01:36:35.796Z,3.33
2019-03-19T01:39:05.024Z,3.67
2019-03-19T01:41:51.119Z,2.65
2019-03-19T01:44:17.341Z,2.87
2019-03-19T01:46:43.608Z,2.70
2019-03-19T01:49:09.840Z,3.05
2019-03-19T01:51:36.060Z,3.30
2019-03-19T01:54:02.410Z,2.52
2019-03-19T01:56:28.620Z,3.10
2019-03-19T01:58:54.848Z,3.50
2019-03-19T02:01:21.390Z,3.33
2019-03-19T02:03:47.635Z,2.65
2019-03-19T02:06:13.843Z,3.00
2019-03-19T02:08:40.084Z,2.70
2019-03-19T02:11:06.310Z,2.80
2019-03-19T02:13:32.544Z,2.60
2019-03-19T02:15:58.757Z,2.70
2019-03-19T02:18:25.010Z,2.90
2019-03-19T02:20:51.220Z,2.95
2019-03-19T02:23:17.455Z,3.45
2019-03-19T02:25:43.675Z,3.42
2019-03-19T02:28:09.911Z,2.83
2019-03-19T02:30:36.141Z,2.50
2019-03-19T02:33:02.508Z,3.37
2019-03-19T02:35:28.707Z,3.33
2019-03-19T02:37:54.933Z,3.00
2019-03-19T02:40:21.188Z,2.92
2019-03-19T02:42:47.726Z,3.37
2019-03-19T02:45:14.412Z,3.15
2019-03-19T02:47:40.688Z,2.70
2019-03-19T02:50:12.021Z,3.22
2019-03-19T02:52:38.254Z,2.92
2019-03-19T02:55:07.868Z,4.22
2019-03-19T02:57:34.119Z,3.40
2019-03-19T03:00:00.613Z,4.70
2019-03-19T03:02:26.881Z,3.00
2019-03-19T03:04:53.191Z,2.85
2019-03-19T03:07:19.396Z,2.65
2019-03-19T03:09:45.642Z,2.33
2019-03-19T03:12:11.855Z,3.25
2019-03-19T03:14:38.079Z,2.75
2019-03-19T03:17:04.316Z,2.20
2019-03-19T03:19:30.546Z,3.33
2019-03-19T03:21:56.890Z,2.98
2019-03-19T03:24:23.100Z,2.50
2019-03-19T03:26:49.337Z,2.70
2019-03-19T03:29:15.569Z,2.40
2019-03-19T03:31:42.123Z,3.17
2019-03-19T03:34:08.651Z,2.60
2019-03-19T03:36:34.888Z,2.45
2019-03-19T03:39:01.095Z,2.60
2019-03-19T03:41:27.574Z,3.25
2019-03-19T03:43:53.794Z,2.90
2019-03-19T03:46:20.045Z,2.95
2019-03-19T03:48:46.276Z,3.70
2019-03-19T03:51:12.512Z,3.40
2019-03-19T03:53:38.752Z,3.75
2019-03-19T03:56:04.963Z,3.70
2019-03-19T03:58:31.206Z,3.05
2019-03-19T04:00:57.424Z,2.98
2019-03-19T04:03:23.671Z,2.95
2019-03-19T04:05:49.885Z,2.60
2019-03-19T04:08:16.139Z,3.30
2019-03-19T04:10:42.336Z,2.35
2019-03-19T04:13:08.576Z,3.75
2019-03-19T04:15:34.786Z,2.90
2019-03-19T04:18:01.031Z,3.22
2019-03-19T04:20:27.360Z,2.70
2019-03-19T04:22:53.587Z,3.42
2019-03-19T04:25:19.900Z,3.30
2019-03-19T04:27:46.136Z,3.25
2019-03-19T04:30:15.067Z,3.95
2019-03-19T04:32:41.401Z,2.80
2019-03-19T04:35:07.828Z,2.67
2019-03-19T04:37:34.379Z,2.75
2019-03-19T04:40:00.594Z,2.25
2019-03-19T04:42:26.830Z,3.27
2019-03-19T04:44:53.077Z,2.83
2019-03-19T04:47:19.339Z,2.65
2019-03-19T04:49:45.568Z,3.47
2019-03-19T04:52:11.803Z,2.77
2019-03-19T04:54:38.382Z,2.85
2019-03-19T04:57:04.638Z,2.25
2019-03-19T04:59:30.855Z,2.83
2019-03-19T05:01:57.099Z,3.37
2019-03-19T05:04:23.311Z,3.47
2019-03-19T05:06:49.548Z,2.85
2019-03-19T05:09:15.768Z,2.75
2019-03-19T05:11:42.028Z,2.10
2019-03-19T05:14:08.239Z,2.95
2019-03-19T05:16:34.494Z,3.45
2019-03-19T05:19:00.711Z,3.50
2019-03-19T05:21:27.222Z,2.70
2019-03-19T05:23:53.468Z,2.52
2019-03-19T05:26:19.682Z,3.05
2019-03-19T05:28:45.933Z,2.37
2019-03-19T05:31:12.146Z,3.30
2019-03-19T05:33:38.663Z,2.65
2019-03-19T05:36:05.010Z,3.83
2019-03-19T05:38:31.227Z,3.35
2019-03-19T05:40:58.339Z,3.30
2019-03-19T05:43:24.567Z,4.83
2019-03-19T05:45:51.135Z,4.25
2019-03-19T05:48:17.730Z,4.25
2019-03-19T05:50:43.913Z,5.72
2019-03-19T05:53:10.437Z,4.30
2019-03-19T05:55:36.975Z,3.87
2019-03-19T05:58:03.292Z,3.92
2019-03-19T06:00:36.903Z,3.45
2019-03-19T06:03:03.368Z,3.35
2019-03-19T06:05:29.575Z,3.77
2019-03-19T06:07:55.831Z,3.15
2019-03-19T06:10:22.052Z,3.35
2019-03-19T06:12:48.292Z,3.58
2019-03-19T06:15:15.208Z,3.10
2019-03-19T06:17:43.522Z,3.45
2019-03-19T06:20:16.692Z,3.17
2019-03-19T06:22:43.139Z,3.15
2019-03-19T06:25:10.675Z,2.90
2019-03-19T06:27:36.904Z,2.98
2019-03-19T06:30:06.932Z,2.55
2019-03-19T06:32:33.256Z,3.83
2019-03-19T06:34:59.472Z,2.90
2019-03-19T06:37:25.696Z,2.33
2019-03-19T06:39:52.233Z,3.75
2019-03-19T06:42:18.456Z,3.12
2019-03-19T06:44:44.726Z,2.55
2019-03-19T06:47:10.981Z,2.90
2019-03-19T06:49:38.379Z,3.30
2019-03-19T06:52:04.607Z,3.15
2019-03-19T06:54:30.842Z,2.83
2019-03-19T06:56:57.086Z,3.00
2019-03-19T06:59:23.307Z,3.40
2019-03-19T07:01:49.575Z,2.60
2019-03-19T07:04:15.809Z,2.72
2019-03-19T07:06:42.039Z,2.95
2019-03-19T07:09:08.268Z,2.80
2019-03-19T07:11:34.520Z,2.90
2019-03-19T07:14:00.742Z,2.58
2019-03-19T07:16:27.007Z,2.70
2019-03-19T07:18:53.233Z,2.65
2019-03-19T07:21:19.476Z,2.90
2019-03-19T07:23:45.710Z,3.58
2019-03-19T07:26:11.964Z,3.70
2019-03-19T07:28:38.491Z,3.22
2019-03-19T07:31:04.766Z,2.85
2019-03-19T07:33:30.996Z,2.92
2019-03-19T07:35:57.208Z,2.50
2019-03-19T07:38:23.775Z,2.72
2019-03-19T07:40:50.003Z,2.55
2019-03-19T07:43:16.243Z,2.40
2019-03-19T07:45:42.501Z,3.30
2019-03-19T07:48:08.751Z,2.52
2019-03-19T07:50:34.987Z,2.90
2019-03-19T07:53:01.562Z,2.60
2019-03-19T07:55:27.776Z,3.10
2019-03-19T07:57:53.999Z,3.83
2019-03-19T08:00:21.254Z,2.60
2019-03-19T08:02:47.797Z,2.98
2019-03-19T08:05:14.141Z,2.53
2019-03-19T08:07:40.369Z,3.20
2019-03-19T08:10:15.229Z,2.90
2019-03-19T08:12:41.462Z,2.93
2019-03-19T08:15:10.995Z,3.20
2019-03-19T08:17:37.581Z,2.95
2019-03-19T08:20:06.999Z,3.35
2019-03-19T08:22:33.263Z,2.90
2019-03-19T08:24:59.496Z,3.07
2019-03-19T08:27:26.072Z,2.60
2019-03-19T08:29:52.329Z,2.75
2019-03-19T08:32:19.035Z,3.77
2019-03-19T08:34:45.283Z,2.83
2019-03-19T08:37:11.828Z,3.70
2019-03-19T08:39:38.089Z,3.23
2019-03-19T08:42:04.295Z,2.83
2019-03-19T08:44:30.559Z,2.58
2019-03-19T08:46:56.830Z,3.20
2019-03-19T08:49:23.043Z,2.90
2019-03-19T08:51:49.292Z,2.73
2019-03-19T08:54:15.537Z,3.00
2019-03-19T08:56:41.788Z,3.10
2019-03-19T08:59:08.014Z,5.17
2019-03-19T09:01:34.279Z,2.30
2019-03-19T09:04:00.511Z,3.10
2019-03-19T09:06:26.785Z,2.55
2019-03-19T09:08:53.391Z,2.37
2019-03-19T09:11:19.649Z,2.40
2019-03-19T09:13:45.933Z,2.47
2019-03-19T09:16:12.140Z,2.15
2019-03-19T09:18:38.367Z,2.42
2019-03-19T09:21:04.946Z,3.00
2019-03-19T09:23:33.255Z,2.40
2019-03-19T09:26:01.089Z,3.02
2019-03-19T09:28:28.665Z,2.15
2019-03-19T09:30:55.278Z,2.15
2019-03-19T09:33:21.540Z,2.20
2019-03-19T09:35:48.047Z,2.40
2019-03-19T09:38:14.296Z,2.52
2019-03-19T09:40:40.527Z,2.57
2019-03-19T09:43:06.787Z,2.30
2019-03-19T09:45:33.020Z,2.63
2019-03-19T09:47:59.271Z,4.47
2019-03-19T09:50:26.112Z,2.50
2019-03-19T09:52:52.483Z,3.22
2019-03-19T09:55:18.826Z,1.98
2019-03-19T09:57:45.054Z,2.10
2019-03-19T10:00:20.082Z,2.73
2019-03-19T10:02:46.303Z,2.08
2019-03-19T10:05:12.748Z,2.20
2019-03-19T10:07:38.984Z,3.02
2019-03-19T10:10:11.263Z,2.80
2019-03-19T10:12:37.491Z,2.40
2019-03-19T10:15:06.434Z,2.17
2019-03-19T10:17:52.521Z,2.47
2019-03-19T10:20:23.967Z,2.30
2019-03-19T10:22:50.197Z,3.10
2019-03-19T10:25:16.557Z,2.83
2019-03-19T10:27:42.983Z,2.67
2019-03-19T10:30:19.473Z,2.90
2019-03-19T10:32:45.687Z,2.93
2019-03-19T10:35:12.529Z,2.90
2019-03-19T10:37:39.000Z,2.67
2019-03-19T10:40:07.320Z,2.23
2019-03-19T10:42:33.695Z,2.50
2019-03-19T10:44:59.928Z,2.27
2019-03-19T10:47:26.191Z,2.70
2019-03-19T10:49:52.434Z,2.40
2019-03-19T10:52:18.659Z,2.50
2019-03-19T10:54:44.924Z,2.40
2019-03-19T10:57:11.248Z,2.13
2019-03-19T10:59:37.468Z,1.93
2019-03-19T11:02:03.914Z,2.17
2019-03-19T11:04:30.423Z,2.40
2019-03-19T11:06:56.667Z,2.17
2019-03-19T11:09:22.884Z,2.20
2019-03-19T11:11:49.131Z,2.30
2019-03-19T11:14:15.355Z,2.73
2019-03-19T11:16:41.896Z,3.00
2019-03-19T11:19:08.140Z,2.90
2019-03-19T11:21:34.373Z,2.20
2019-03-19T11:24:00.621Z,2.67
2019-03-19T11:26:26.840Z,2.10
2019-03-19T11:28:53.064Z,3.30
2019-03-19T11:31:19.293Z,3.10
2019-03-19T11:33:47.618Z,2.33
2019-03-19T11:36:13.877Z,2.07
2019-03-19T11:38:40.415Z,3.53
2019-03-19T11:41:07.400Z,3.03
2019-03-19T11:43:33.787Z,2.30
2019-03-19T11:46:00.039Z,3.20
2019-03-19T11:48:26.290Z,2.97
2019-03-19T11:50:52.499Z,2.20
2019-03-19T11:53:18.751Z,3.03
2019-03-19T11:55:45.241Z,2.73
2019-03-19T11:58:11.457Z,3.33
2019-03-19T12:00:39.879Z,3.23
2019-03-19T12:03:14.768Z,3.23
2019-03-19T12:05:34.373Z,2.50
2019-03-19T12:08:00.599Z,2.67
2019-03-19T12:10:26.838Z,2.00
2019-03-19T12:12:53.354Z,1.80
2019-03-19T12:15:19.589Z,1.93
2019-03-19T12:17:45.935Z,2.20
2019-03-19T12:20:13.072Z,2.50
2019-03-19T12:22:39.294Z,2.90
2019-03-19T12:25:07.235Z,4.30
2019-03-19T12:27:33.582Z,3.50
2019-03-19T12:29:59.795Z,3.20
2019-03-19T12:32:26.045Z,3.17
2019-03-19T12:34:52.255Z,2.30
2019-03-19T12:37:18.726Z,2.13
2019-03-19T12:39:44.932Z,2.03
2019-03-19T12:42:11.186Z,1.70
2019-03-19T12:44:37.712Z,2.67
2019-03-19T12:47:04.103Z,2.30
2019-03-19T12:49:30.307Z,3.20
2019-03-19T12:51:56.841Z,3.20
2019-03-19T12:54:23.091Z,1.97
2019-03-19T12:56:49.331Z,2.10
2019-03-19T12:59:20.209Z,2.00
2019-03-19T13:01:43.596Z,1.60
2019-03-19T13:04:09.854Z,1.80
2019-03-19T13:06:36.088Z,2.90
2019-03-19T13:09:04.734Z,3.00
2019-03-19T13:11:30.957Z,2.40
2019-03-19T13:13:57.175Z,3.70
2019-03-19T13:16:23.418Z,1.90
2019-03-19T13:18:49.935Z,1.60
2019-03-19T13:21:16.178Z,2.17
2019-03-19T13:23:42.407Z,1.80
2019-03-19T13:26:08.665Z,2.47
2019-03-19T13:28:35.255Z,1.93
2019-03-19T13:31:01.892Z,1.70
2019-03-19T13:33:28.430Z,3.23
2019-03-19T13:35:54.675Z,2.67
2019-03-19T13:38:20.930Z,2.27
2019-03-19T13:40:47.126Z,2.90
2019-03-19T13:43:13.378Z,1.73
2019-03-19T13:45:39.617Z,2.00
2019-03-19T13:48:05.834Z,1.90
2019-03-19T13:50:32.068Z,1.93
2019-03-19T13:52:58.393Z,2.60
2019-03-19T13:55:24.623Z,2.00
2019-03-19T13:57:50.974Z,2.50
2019-03-19T14:00:17.913Z,2.50
2019-03-19T14:02:44.567Z,2.07
2019-03-19T14:05:12.175Z,2.90
2019-03-19T14:07:38.587Z,2.80
2019-03-19T14:10:13.746Z,2.07
2019-03-19T14:12:40.071Z,2.00
2019-03-19T14:15:12.772Z,1.87
2019-03-19T14:17:39.152Z,2.13
2019-03-19T14:20:11.374Z,1.80
2019-03-19T14:22:37.635Z,1.43
2019-03-19T14:25:05.779Z,2.03
2019-03-19T14:27:31.999Z,2.23
2019-03-19T14:29:58.241Z,2.10
2019-03-19T14:32:24.563Z,2.30
2019-03-19T14:34:50.827Z,1.87
2019-03-19T14:37:17.026Z,2.43
2019-03-19T14:39:43.536Z,1.97
2019-03-19T14:42:10.088Z,2.03
2019-03-19T14:44:36.334Z,2.03
2019-03-19T14:47:02.791Z,1.70
2019-03-19T14:49:29.374Z,1.83
2019-03-19T14:51:55.723Z,1.60
2019-03-19T14:54:21.943Z,1.77
2019-03-19T14:56:48.215Z,2.13
2019-03-19T14:59:14.445Z,2.27
2019-03-19T15:01:40.665Z,2.00
2019-03-19T15:04:06.896Z,1.83
2019-03-19T15:06:33.120Z,1.57
2019-03-19T15:08:59.371Z,1.80
2019-03-19T15:11:25.948Z,2.20
2019-03-19T15:13:52.175Z,1.90
2019-03-19T15:16:18.422Z,1.80
2019-03-19T15:18:44.673Z,2.03
2019-03-19T15:21:10.897Z,1.80
2019-03-19T15:23:37.130Z,2.60
2019-03-19T15:26:03.358Z,2.47
2019-03-19T15:28:29.959Z,2.50
2019-03-19T15:30:56.175Z,1.80
2019-03-19T15:33:22.731Z,1.87
2019-03-19T15:35:48.950Z,2.20
2019-03-19T15:38:15.195Z,1.60
2019-03-19T15:40:41.427Z,1.90
2019-03-19T15:43:07.647Z,1.60
2019-03-19T15:45:34.269Z,1.97
2019-03-19T15:48:00.487Z,1.70
2019-03-19T15:50:26.729Z,1.97
2019-03-19T15:52:52.943Z,2.00
2019-03-19T15:55:19.181Z,2.20
2019-03-19T15:57:45.829Z,1.70
2019-03-19T16:00:17.195Z,1.67
2019-03-19T16:02:43.811Z,1.90
2019-03-19T16:05:11.358Z,2.63
2019-03-19T16:07:37.599Z,1.83
2019-03-19T16:10:06.703Z,2.30
2019-03-19T16:12:32.931Z,1.87
2019-03-19T16:14:59.159Z,2.27
2019-03-19T16:17:25.403Z,1.97
2019-03-19T16:19:51.627Z,1.80
2019-03-19T16:22:17.910Z,1.77
2019-03-19T16:24:44.125Z,2.00
2019-03-19T16:27:10.701Z,2.33
2019-03-19T16:29:36.923Z,2.53
2019-03-19T16:32:03.271Z,1.90
2019-03-19T16:34:29.507Z,1.60
2019-03-19T16:36:55.727Z,2.20
2019-03-19T16:39:22.089Z,1.93
2019-03-19T16:41:48.295Z,2.67
2019-03-19T16:44:14.590Z,2.60
2019-03-19T16:46:40.799Z,1.47
2019-03-19T16:49:07.391Z,2.60
2019-03-19T16:51:33.622Z,1.83
2019-03-19T16:53:59.880Z,2.20
2019-03-19T16:56:26.093Z,2.13
2019-03-19T16:58:52.366Z,1.70
2019-03-19T17:01:18.607Z,2.20
2019-03-19T17:03:44.827Z,2.23
2019-03-19T17:06:11.071Z,1.93
2019-03-19T17:08:37.291Z,2.70
2019-03-19T17:11:03.654Z,2.62
2019-03-19T17:13:29.878Z,2.13
2019-03-19T17:15:56.119Z,3.00
2019-03-19T17:18:22.341Z,2.17
2019-03-19T17:20:48.609Z,2.57
2019-03-19T17:23:14.831Z,2.27
2019-03-19T17:25:41.056Z,2.70
2019-03-19T17:28:07.311Z,3.80
2019-03-19T17:30:34.850Z,2.35
2019-03-19T17:33:01.099Z,2.33
2019-03-19T17:35:27.310Z,2.13
2019-03-19T17:37:54.019Z,2.40
2019-03-19T17:40:20.239Z,2.30
2019-03-19T17:42:46.466Z,2.00
2019-03-19T17:45:14.364Z,2.20
2019-03-19T17:47:41.094Z,2.40
2019-03-19T17:50:16.644Z,2.08
2019-03-19T17:52:43.368Z,2.23
2019-03-19T17:55:11.131Z,2.30
2019-03-19T17:57:37.355Z,2.33
2019-03-19T18:00:17.399Z,2.52
2019-03-19T18:02:43.735Z,2.30
2019-03-19T18:05:10.483Z,3.73
2019-03-19T18:07:36.805Z,4.40
2019-03-19T18:10:09.339Z,4.83
2019-03-19T18:12:35.924Z,4.17
2019-03-19T18:15:03.843Z,3.83
2019-03-19T18:17:30.087Z,3.17
2019-03-19T18:19:56.320Z,2.70
2019-03-19T18:22:22.571Z,3.40
2019-03-19T18:24:49.420Z,4.03
2019-03-19T18:27:15.674Z,5.25
2019-03-19T18:29:42.182Z,5.10
2019-03-19T18:32:08.441Z,5.20
2019-03-19T18:34:34.667Z,5.37
2019-03-19T18:37:00.916Z,4.90
2019-03-19T18:39:27.512Z,3.20
2019-03-19T18:41:53.764Z,3.15
2019-03-19T18:44:19.991Z,3.95
2019-03-19T18:46:46.265Z,3.27
2019-03-19T18:49:12.493Z,6.60
2019-03-19T18:51:38.713Z,6.03
2019-03-19T18:54:04.960Z,6.40
2019-03-19T18:56:31.201Z,6.83
2019-03-19T18:58:57.747Z,7.00
2019-03-19T19:01:24.296Z,6.25
2019-03-19T19:03:50.815Z,5.90
2019-03-19T19:06:17.042Z,5.43
2019-03-19T19:08:43.453Z,5.00
2019-03-19T19:11:09.660Z,5.37
2019-03-19T19:13:35.909Z,8.23
2019-03-19T19:16:02.791Z,10.37
2019-03-19T19:18:29.021Z,8.88
2019-03-19T19:20:55.262Z,7.53
2019-03-19T19:23:21.487Z,5.97
2019-03-19T19:25:47.928Z,6.37
2019-03-19T19:28:14.306Z,5.30
2019-03-19T19:30:40.546Z,4.03
2019-03-19T19:33:07.104Z,4.30
2019-03-19T19:35:33.356Z,4.27
2019-03-19T19:37:59.559Z,4.05
2019-03-19T19:40:25.830Z,3.27
2019-03-19T19:42:52.035Z,4.20
2019-03-19T19:45:18.860Z,3.85
2019-03-19T19:47:45.411Z,3.85
2019-03-19T19:50:14.080Z,3.60
2019-03-19T19:52:40.813Z,3.72
2019-03-19T19:55:09.080Z,3.90
2019-03-19T19:57:35.391Z,4.17
2019-03-19T20:00:04.797Z,4.15
2019-03-19T20:02:31.221Z,4.20
2019-03-19T20:05:02.811Z,3.90
2019-03-19T20:07:26.144Z,3.60
2019-03-19T20:09:52.416Z,3.87
2019-03-19T20:12:27.916Z,3.77
2019-03-19T20:14:54.159Z,4.30
2019-03-19T20:17:21.108Z,3.70
2019-03-19T20:19:49.694Z,3.47
2019-03-19T20:22:15.977Z,3.70
2019-03-19T20:24:42.304Z,3.80
2019-03-19T20:27:08.899Z,4.00
2019-03-19T20:29:37.058Z,4.30
2019-03-19T20:32:06.345Z,4.20
2019-03-19T20:34:32.697Z,4.10
2019-03-19T20:36:58.962Z,3.75
2019-03-19T20:39:25.664Z,4.37
2019-03-19T20:41:52.008Z,4.30
2019-03-19T20:44:18.425Z,4.95
2019-03-19T20:46:45.075Z,3.72
2019-03-19T20:49:11.388Z,3.75
2019-03-19T20:51:38.126Z,3.70
2019-03-19T20:54:04.973Z,3.75
2019-03-19T20:56:37.661Z,3.70
2019-03-19T20:59:06.564Z,4.47
2019-03-19T21:01:35.925Z,3.55
2019-03-19T21:04:02.872Z,3.58
2019-03-19T21:06:29.544Z,4.33
2019-03-19T21:08:56.275Z,4.08
2019-03-19T21:11:22.662Z,4.25
2019-03-19T21:13:49.354Z,5.10
2019-03-19T21:16:15.721Z,4.53
2019-03-19T21:18:41.920Z,5.50
2019-03-19T21:21:08.379Z,6.45
2019-03-19T21:23:34.733Z,5.67
2019-03-19T21:26:01.301Z,6.20
2019-03-19T21:28:27.594Z,5.10
2019-03-19T21:30:53.900Z,5.10
2019-03-19T21:33:20.202Z,4.92
2019-03-19T21:35:46.711Z,5.15
2019-03-19T21:38:13.040Z,4.12
2019-03-19T21:40:39.294Z,3.58
2019-03-19T21:43:06.046Z,3.75
2019-03-19T21:45:32.434Z,4.05
2019-03-19T21:47:58.747Z,3.80
2019-03-19T21:50:27.202Z,4.28
2019-03-19T21:52:53.581Z,3.50
2019-03-19T21:55:20.043Z,3.45
2019-03-19T21:57:46.439Z,3.58
2019-03-19T22:00:22.262Z,3.85
2019-03-19T22:02:48.548Z,3.27
2019-03-19T22:05:14.846Z,3.80
2019-03-19T22:07:41.270Z,4.12
2019-03-19T22:10:14.605Z,3.92
2019-03-19T22:12:41.223Z,4.10
2019-03-19T22:15:12.238Z,3.90
2019-03-19T22:17:38.740Z,4.58
2019-03-19T22:20:06.114Z,4.62
2019-03-19T22:22:32.643Z,5.55
2019-03-19T22:24:59.021Z,9.33
2019-03-19T22:27:25.477Z,6.00
2019-03-19T22:29:51.757Z,4.95
2019-03-19T22:32:18.031Z,4.83
2019-03-19T22:34:44.759Z,4.40
2019-03-19T22:37:12.756Z,5.05
2019-03-19T22:39:39.131Z,4.42
2019-03-19T22:42:05.509Z,4.62
2019-03-19T22:44:31.812Z,4.83
2019-03-19T22:46:58.153Z,4.08
2019-03-19T22:49:24.480Z,5.20
2019-03-19T22:51:50.731Z,4.53
2019-03-19T22:54:17.077Z,3.92
2019-03-19T22:56:43.410Z,4.30
2019-03-19T22:59:09.747Z,4.10
2019-03-19T23:01:36.292Z,3.90
2019-03-19T23:04:02.758Z,3.95
2019-03-19T23:06:29.484Z,3.90
2019-03-19T23:08:55.713Z,4.65
2019-03-19T23:11:22.023Z,4.37
2019-03-19T23:13:48.868Z,4.87
2019-03-19T23:16:15.255Z,5.65
2019-03-19T23:18:41.656Z,5.83
2019-03-19T23:21:08.195Z,5.60
2019-03-19T23:23:34.685Z,5.20
2019-03-19T23:26:00.958Z,4.28
2019-03-19T23:28:27.276Z,5.40
2019-03-19T23:30:53.566Z,5.15
2019-03-19T23:33:20.044Z,4.60
2019-03-19T23:35:47.774Z,5.10
2019-03-19T23:38:14.524Z,5.00
2019-03-19T23:40:40.915Z,4.90
2019-03-19T23:43:09.915Z,4.58
2019-03-19T23:45:36.207Z,4.75
2019-03-19T23:48:02.727Z,4.70
2019-03-19T23:50:28.999Z,5.12
2019-03-19T23:52:55.419Z,5.20
2019-03-19T23:55:24.396Z,5.25
2019-03-19T23:57:50.768Z,4.85
